createdAt,value
2023-02-14T00:01:26.659Z,23.00
2023-02-14T00:03:54.913Z,27.07
2023-02-14T00:06:22.844Z,22.07
2023-02-14T00:08:52.447Z,19.53
2023-02-14T00:11:20.714Z,20.80
2023-02-14T00:14:07.511Z,19.80
2023-02-14T00:16:36.543Z,19.63
2023-02-14T00:19:05.471Z,18.33
2023-02-14T00:21:35.978Z,19.37
2023-02-14T00:24:07.907Z,19.23
2023-02-14T00:26:38.723Z,19.43
2023-02-14T00:29:07.455Z,19.17
2023-02-14T00:31:35.526Z,19.13
2023-02-14T00:34:04.098Z,19.17
2023-02-14T00:36:33.632Z,18.97
2023-02-14T00:39:06.862Z,19.03
2023-02-14T00:41:35.172Z,19.60
2023-02-14T00:44:02.769Z,18.77
2023-02-14T00:46:30.780Z,18.73
2023-02-14T00:48:59.069Z,19.40
2023-02-14T00:51:27.639Z,20.20
2023-02-14T00:53:55.454Z,18.07
2023-02-14T00:56:23.719Z,19.77
2023-02-14T00:58:51.932Z,19.90
2023-02-14T01:01:20.052Z,20.00
2023-02-14T01:03:49.874Z,19.53
2023-02-14T01:06:17.881Z,20.73
2023-02-14T01:08:46.490Z,20.23
2023-02-14T01:11:24.363Z,19.47
2023-02-14T01:13:52.616Z,19.77
2023-02-14T01:16:20.808Z,19.33
2023-02-14T01:18:48.136Z,19.97
2023-02-14T01:21:28.066Z,20.93
2023-02-14T01:23:59.926Z,21.07
2023-02-14T01:26:27.586Z,18.20
2023-02-14T01:29:01.184Z,17.77
2023-02-14T01:31:30.414Z,18.10
2023-02-14T01:33:58.487Z,19.03
2023-02-14T01:36:52.304Z,20.60
2023-02-14T01:39:20.638Z,20.37
2023-02-14T01:41:49.124Z,21.50
2023-02-14T01:44:16.202Z,22.27
2023-02-14T01:46:45.141Z,20.07
2023-02-14T01:49:11.838Z,19.43
2023-02-14T01:51:40.570Z,19.47
2023-02-14T01:54:08.476Z,21.50
2023-02-14T01:56:39.215Z,20.47
2023-02-14T01:59:07.735Z,22.10
2023-02-14T02:01:35.581Z,21.30
2023-02-14T02:04:15.238Z,21.50
2023-02-14T02:06:48.421Z,21.20
2023-02-14T02:09:34.207Z,21.77
2023-02-14T02:12:02.424Z,21.00
2023-02-14T02:14:31.800Z,21.43
2023-02-14T02:17:21.071Z,22.93
2023-02-14T02:20:13.002Z,20.30
2023-02-14T02:23:13.910Z,20.27
2023-02-14T02:25:53.071Z,19.07
2023-02-14T02:28:45.474Z,21.07
2023-02-14T02:31:28.135Z,20.47
2023-02-14T02:34:04.624Z,20.83
2023-02-14T02:37:18.585Z,21.08
2023-02-14T02:40:10.292Z,20.97
2023-02-14T02:42:53.706Z,22.03
2023-02-14T02:45:34.520Z,22.77
2023-02-14T02:48:11.355Z,21.07
2023-02-14T02:51:04.735Z,21.20
2023-02-14T02:54:25.761Z,21.70
2023-02-14T02:56:58.633Z,21.27
2023-02-14T02:59:28.884Z,22.73
2023-02-14T03:02:02.505Z,21.00
2023-02-14T03:04:47.533Z,21.63
2023-02-14T03:07:34.022Z,21.20
2023-02-14T03:10:14.406Z,20.83
2023-02-14T03:12:59.390Z,21.00
2023-02-14T03:15:37.579Z,21.27
2023-02-14T03:19:00.677Z,20.70
2023-02-14T03:21:43.047Z,20.37
2023-02-14T03:24:30.742Z,21.77
2023-02-14T03:27:08.612Z,20.77
2023-02-14T03:29:47.793Z,21.03
2023-02-14T03:32:20.207Z,20.33
2023-02-14T03:35:18.180Z,21.07
2023-02-14T03:38:33.068Z,20.65
2023-02-14T03:41:02.715Z,22.20
2023-02-14T03:43:35.300Z,21.27
2023-02-14T03:46:14.791Z,23.10
2023-02-14T03:48:41.879Z,22.47
2023-02-14T03:51:11.484Z,21.53
2023-02-14T03:53:40.247Z,21.67
2023-02-14T03:56:23.466Z,23.60
2023-02-14T03:58:52.169Z,22.10
2023-02-14T04:01:24.872Z,22.07
2023-02-14T04:03:53.233Z,20.90
2023-02-14T04:06:22.931Z,21.73
2023-02-14T04:08:51.362Z,21.87
2023-02-14T04:11:19.549Z,21.83
2023-02-14T04:13:47.617Z,22.33
2023-02-14T04:16:15.704Z,22.50
2023-02-14T04:19:02.225Z,22.07
2023-02-14T04:21:30.494Z,22.07
2023-02-14T04:23:58.596Z,22.60
2023-02-14T04:26:27.396Z,22.40
2023-02-14T04:28:55.136Z,23.83
2023-02-14T04:31:22.939Z,24.97
2023-02-14T04:33:51.437Z,23.33
2023-02-14T04:36:19.064Z,23.93
2023-02-14T04:38:47.341Z,23.57
2023-02-14T04:41:15.344Z,24.93
2023-02-14T04:43:43.135Z,24.63
2023-02-14T04:46:11.412Z,23.93
2023-02-14T04:48:39.612Z,23.43
2023-02-14T04:51:07.217Z,22.77
2023-02-14T04:53:40.274Z,22.53
2023-02-14T04:56:08.464Z,23.07
2023-02-14T04:58:36.192Z,22.83
2023-02-14T05:01:04.618Z,20.60
2023-02-14T05:03:32.969Z,22.53
2023-02-14T05:06:01.266Z,22.10
2023-02-14T05:08:28.811Z,23.27
2023-02-14T05:10:57.562Z,22.60
2023-02-14T05:13:25.844Z,22.47
2023-02-14T05:15:53.985Z,22.47
2023-02-14T05:18:21.969Z,22.63
2023-02-14T05:20:52.403Z,23.20
2023-02-14T05:23:20.546Z,22.73
2023-02-14T05:25:51.145Z,22.17
2023-02-14T05:28:20.599Z,21.70
2023-02-14T05:30:48.308Z,21.40
2023-02-14T05:33:16.623Z,20.67
2023-02-14T05:35:45.284Z,21.70
2023-02-14T05:38:13.938Z,22.97
2023-02-14T05:40:42.215Z,23.57
2023-02-14T05:43:09.949Z,23.80
2023-02-14T05:45:38.432Z,24.10
2023-02-14T05:48:06.599Z,23.03
2023-02-14T05:50:34.122Z,24.90
2023-02-14T05:53:02.163Z,24.33
2023-02-14T05:55:30.389Z,23.07
2023-02-14T05:57:58.882Z,23.43
2023-02-14T06:00:27.494Z,24.10
2023-02-14T06:02:55.627Z,25.60
2023-02-14T06:05:23.666Z,23.93
2023-02-14T06:07:50.960Z,23.70
2023-02-14T06:10:20.309Z,24.53
2023-02-14T06:12:49.097Z,22.73
2023-02-14T06:15:17.765Z,20.47
2023-02-14T06:17:46.339Z,21.57
2023-02-14T06:20:14.600Z,21.20
2023-02-14T06:22:43.215Z,22.03
2023-02-14T06:25:11.652Z,23.00
2023-02-14T06:27:39.688Z,21.93
2023-02-14T06:30:11.675Z,22.70
2023-02-14T06:32:40.071Z,22.97
2023-02-14T06:35:07.934Z,21.93
2023-02-14T06:37:35.688Z,21.33
2023-02-14T06:40:04.468Z,21.17
2023-02-14T06:42:32.162Z,22.90
2023-02-14T06:45:01.259Z,23.10
2023-02-14T06:47:29.940Z,23.27
2023-02-14T06:50:00.081Z,24.37
2023-02-14T06:52:27.925Z,24.20
2023-02-14T06:54:56.471Z,23.67
2023-02-14T06:57:24.506Z,23.63
2023-02-14T06:59:52.539Z,23.70
2023-02-14T07:02:24.689Z,22.97
2023-02-14T07:04:53.308Z,23.10
2023-02-14T07:07:21.349Z,22.90
2023-02-14T07:09:51.067Z,23.33
2023-02-14T07:12:19.370Z,22.00
2023-02-14T07:14:47.524Z,22.93
2023-02-14T07:17:16.032Z,20.83
2023-02-14T07:19:44.796Z,23.10
2023-02-14T07:22:13.150Z,24.10
2023-02-14T07:24:40.908Z,23.70
2023-02-14T07:27:08.977Z,24.13
2023-02-14T07:29:37.859Z,25.27
2023-02-14T07:32:06.952Z,24.03
2023-02-14T07:34:35.109Z,24.73
2023-02-14T07:37:02.383Z,25.53
2023-02-14T07:39:31.309Z,27.20
2023-02-14T07:41:58.904Z,23.70
2023-02-14T07:44:27.024Z,24.70
2023-02-14T07:46:54.912Z,27.03
2023-02-14T07:49:24.296Z,28.13
2023-02-14T07:51:52.360Z,26.53
2023-02-14T07:54:21.237Z,25.47
2023-02-14T07:56:49.660Z,25.47
2023-02-14T07:59:17.489Z,27.77
2023-02-14T08:01:44.783Z,25.23
2023-02-14T08:04:14.029Z,26.53
2023-02-14T08:06:42.432Z,28.70
2023-02-14T08:09:24.789Z,25.97
2023-02-14T08:12:14.694Z,26.97
2023-02-14T08:14:42.239Z,27.30
2023-02-14T08:17:13.951Z,27.57
2023-02-14T08:19:42.244Z,26.77
2023-02-14T08:22:10.211Z,26.73
2023-02-14T08:24:38.974Z,29.07
2023-02-14T08:27:07.441Z,29.23
2023-02-14T08:29:35.676Z,28.93
2023-02-14T08:32:03.985Z,28.63
2023-02-14T08:34:32.205Z,29.97
2023-02-14T08:37:01.008Z,28.80
2023-02-14T08:39:28.671Z,29.60
2023-02-14T08:41:57.063Z,31.10
2023-02-14T08:44:25.131Z,30.00
2023-02-14T08:46:53.750Z,28.43
2023-02-14T08:49:21.991Z,28.87
2023-02-14T08:51:50.568Z,29.37
2023-02-14T08:54:18.710Z,28.77
2023-02-14T08:56:46.749Z,27.87
2023-02-14T08:59:14.953Z,28.23
2023-02-14T09:01:43.296Z,28.97
2023-02-14T09:04:11.425Z,28.67
2023-02-14T09:06:40.086Z,27.57
2023-02-14T09:09:07.664Z,28.40
2023-02-14T09:11:35.581Z,29.50
2023-02-14T09:14:04.957Z,27.83
2023-02-14T09:16:32.524Z,28.53
2023-02-14T09:19:00.359Z,29.13
2023-02-14T09:21:28.068Z,29.77
2023-02-14T09:23:55.933Z,28.30
2023-02-14T09:26:23.919Z,27.13
2023-02-14T09:28:52.199Z,26.63
2023-02-14T09:31:22.281Z,26.87
2023-02-14T09:33:50.459Z,28.33
2023-02-14T09:36:35.808Z,26.93
2023-02-14T09:39:07.183Z,25.60
2023-02-14T09:42:07.313Z,26.07
2023-02-14T09:44:41.077Z,25.40
2023-02-14T09:47:34.932Z,24.27
2023-02-14T09:50:06.131Z,25.20
2023-02-14T09:52:33.363Z,21.87
2023-02-14T09:55:01.516Z,21.97
2023-02-14T09:57:53.361Z,22.13
2023-02-14T10:00:43.687Z,23.23
2023-02-14T10:03:18.213Z,21.53
2023-02-14T10:06:12.662Z,20.83
2023-02-14T10:08:49.563Z,19.60
2023-02-14T10:11:20.519Z,19.20
2023-02-14T10:14:10.554Z,17.97
2023-02-14T10:16:53.756Z,18.07
2023-02-14T10:19:39.213Z,18.70
2023-02-14T10:22:17.553Z,18.67
2023-02-14T10:25:24.352Z,18.30
2023-02-14T10:27:52.851Z,19.83
2023-02-14T10:30:22.253Z,18.27
2023-02-14T10:33:06.441Z,20.47
2023-02-14T10:35:45.481Z,18.97
2023-02-14T10:38:50.212Z,19.87
2023-02-14T10:41:53.347Z,18.87
2023-02-14T10:44:42.092Z,21.93
2023-02-14T10:47:47.028Z,19.93
2023-02-14T10:50:35.664Z,19.63
2023-02-14T10:53:17.159Z,19.97
2023-02-14T10:56:06.520Z,21.47
2023-02-14T10:58:37.773Z,22.67
2023-02-14T11:01:16.305Z,21.67
2023-02-14T11:03:56.165Z,20.43
2023-02-14T11:06:24.297Z,21.37
2023-02-14T11:08:51.982Z,23.77
2023-02-14T11:11:31.295Z,19.50
2023-02-14T11:13:59.044Z,19.93
2023-02-14T11:16:31.427Z,16.57
2023-02-14T11:19:25.990Z,17.50
2023-02-14T11:21:54.716Z,17.47
2023-02-14T11:24:31.891Z,18.03
2023-02-14T11:27:07.450Z,17.87
2023-02-14T11:29:45.053Z,18.20
2023-02-14T11:32:16.565Z,17.77
2023-02-14T11:34:59.808Z,17.17
2023-02-14T11:37:34.085Z,20.07
2023-02-14T11:40:01.486Z,20.07
2023-02-14T11:42:34.181Z,19.90
2023-02-14T11:45:02.112Z,19.43
2023-02-14T11:47:30.746Z,18.60
2023-02-14T11:50:02.270Z,19.50
2023-02-14T11:52:29.964Z,24.07
2023-02-14T11:54:57.660Z,24.07
2023-02-14T11:57:33.873Z,23.67
2023-02-14T12:00:01.835Z,23.63
2023-02-14T12:02:33.659Z,24.80
2023-02-14T12:05:06.025Z,27.27
2023-02-14T12:07:36.580Z,27.03
2023-02-14T12:10:18.900Z,26.03
2023-02-14T12:12:51.782Z,26.40
2023-02-14T12:15:23.520Z,25.10
2023-02-14T12:17:53.278Z,25.37
2023-02-14T12:20:27.133Z,26.33
2023-02-14T12:23:13.761Z,26.83
2023-02-14T12:25:44.545Z,24.20
2023-02-14T12:28:14.199Z,25.60
2023-02-14T12:30:41.915Z,24.13
2023-02-14T12:33:35.378Z,25.67
2023-02-14T12:36:44.194Z,23.63
2023-02-14T12:39:29.369Z,23.87
2023-02-14T12:42:02.895Z,19.10
2023-02-14T12:44:42.587Z,23.60
2023-02-14T12:47:14.211Z,23.17
2023-02-14T12:49:49.739Z,22.90
2023-02-14T12:52:33.353Z,23.60
2023-02-14T12:55:24.141Z,24.00
2023-02-14T12:58:12.729Z,24.33
2023-02-14T13:00:44.426Z,23.43
2023-02-14T13:03:26.677Z,18.30
2023-02-14T13:06:16.023Z,18.87
2023-02-14T13:08:49.289Z,19.90
2023-02-14T13:11:22.408Z,23.30
2023-02-14T13:14:04.489Z,20.73
2023-02-14T13:16:39.691Z,22.27
2023-02-14T13:19:22.035Z,22.63
2023-02-14T13:21:49.919Z,20.47
2023-02-14T13:24:28.704Z,21.80
2023-02-14T13:26:57.469Z,21.23
2023-02-14T13:29:25.361Z,24.67
2023-02-14T13:31:58.839Z,22.97
2023-02-14T13:34:33.277Z,22.20
2023-02-14T13:37:00.811Z,24.13
2023-02-14T13:39:38.476Z,23.15
2023-02-14T13:42:07.166Z,22.13
2023-02-14T13:44:48.978Z,22.38
2023-02-14T13:47:26.081Z,24.10
2023-02-14T13:50:00.796Z,24.23
2023-02-14T13:52:44.021Z,24.30
2023-02-14T13:55:46.228Z,22.90
2023-02-14T13:58:21.834Z,24.50
2023-02-14T14:00:49.649Z,23.45
2023-02-14T14:03:28.934Z,24.67
2023-02-14T14:06:09.884Z,24.73
2023-02-14T14:08:42.650Z,24.27
2023-02-14T14:11:22.904Z,25.00
2023-02-14T14:13:59.746Z,24.42
2023-02-14T14:16:33.641Z,24.77
2023-02-14T14:19:10.192Z,24.03
2023-02-14T14:24:26.936Z,25.30
2023-02-14T14:27:08.288Z,25.83
2023-02-14T14:29:45.296Z,24.20
2023-02-14T14:32:18.354Z,24.67
2023-02-14T14:34:52.554Z,24.30
2023-02-14T14:37:21.932Z,25.87
2023-02-14T14:39:53.763Z,23.93
2023-02-14T14:42:21.469Z,24.67
2023-02-14T14:45:00.032Z,24.37
2023-02-14T14:47:30.778Z,24.17
2023-02-14T14:50:04.717Z,25.20
2023-02-14T14:52:39.450Z,24.53
2023-02-14T14:55:08.493Z,24.07
2023-02-14T14:57:39.718Z,24.77
2023-02-14T15:00:18.648Z,24.87
2023-02-14T15:03:00.611Z,24.47
2023-02-14T15:05:55.907Z,23.47
2023-02-14T15:08:25.588Z,22.90
2023-02-14T15:10:55.691Z,24.17
2023-02-14T15:13:50.760Z,25.17
2023-02-14T15:16:21.558Z,24.77
2023-02-14T15:18:49.548Z,25.47
2023-02-14T15:21:16.475Z,24.57
2023-02-14T15:23:44.206Z,25.37
2023-02-14T15:26:17.103Z,26.93
2023-02-14T15:28:44.655Z,26.23
2023-02-14T15:31:11.859Z,26.30
2023-02-14T15:33:39.631Z,27.60
2023-02-14T15:36:08.677Z,27.30
2023-02-14T15:38:36.684Z,26.13
2023-02-14T15:41:04.676Z,26.97
2023-02-14T15:43:33.015Z,27.03
2023-02-14T15:46:21.310Z,26.37
2023-02-14T15:48:49.335Z,25.87
2023-02-14T15:51:26.307Z,27.57
2023-02-14T15:53:58.865Z,27.10
2023-02-14T15:56:44.828Z,26.37
2023-02-14T15:59:20.991Z,26.07
2023-02-14T16:02:05.960Z,25.90
2023-02-14T16:04:36.148Z,26.00
2023-02-14T16:07:06.881Z,27.23
2023-02-14T16:09:35.464Z,26.30
2023-02-14T16:12:31.754Z,27.03
2023-02-14T16:15:17.514Z,26.33
2023-02-14T16:17:45.931Z,26.53
2023-02-14T16:20:43.720Z,27.17
2023-02-14T16:25:47.024Z,26.03
2023-02-14T16:28:14.953Z,27.33
2023-02-14T16:30:42.688Z,26.83
2023-02-14T16:33:22.202Z,28.67
2023-02-14T16:35:49.335Z,26.50
2023-02-14T16:38:17.722Z,28.20
2023-02-14T16:40:46.819Z,27.57
2023-02-14T16:43:18.612Z,28.30
2023-02-14T16:45:45.699Z,27.27
2023-02-14T16:48:15.794Z,27.23
2023-02-14T16:50:42.549Z,27.87
2023-02-14T16:53:22.677Z,26.47
2023-02-14T16:55:50.801Z,27.70
2023-02-14T16:58:19.562Z,27.37
2023-02-14T17:00:50.503Z,28.33
2023-02-14T17:03:18.184Z,26.37
2023-02-14T17:05:45.647Z,27.53
2023-02-14T17:08:13.216Z,27.90
2023-02-14T17:10:40.330Z,27.07
2023-02-14T17:13:07.465Z,27.97
2023-02-14T17:15:35.480Z,27.97
2023-02-14T17:18:09.044Z,27.97
2023-02-14T17:20:37.115Z,26.83
2023-02-14T17:23:04.974Z,27.17
2023-02-14T17:25:32.119Z,28.07
2023-02-14T17:28:03.142Z,29.07
2023-02-14T17:30:31.031Z,27.50
2023-02-14T17:32:58.649Z,28.57
2023-02-14T17:35:26.731Z,29.10
2023-02-14T17:37:54.511Z,28.40
2023-02-14T17:40:22.931Z,28.97
2023-02-14T17:42:51.209Z,30.77
2023-02-14T17:45:18.992Z,28.87
2023-02-14T17:47:46.553Z,30.00
2023-02-14T17:50:14.768Z,29.33
2023-02-14T17:52:42.849Z,29.30
2023-02-14T17:55:16.466Z,28.37
2023-02-14T17:57:43.948Z,28.77
2023-02-14T18:00:16.443Z,28.20
2023-02-14T18:02:45.931Z,29.03
2023-02-14T18:05:13.390Z,30.53
2023-02-14T18:07:41.041Z,30.70
2023-02-14T18:10:09.911Z,29.80
2023-02-14T18:12:38.002Z,32.20
2023-02-14T18:15:06.833Z,32.80
2023-02-14T18:17:34.495Z,33.33
2023-02-14T18:20:03.236Z,34.10
2023-02-14T18:22:30.569Z,32.50
2023-02-14T18:24:58.875Z,31.70
2023-02-14T18:27:26.649Z,30.50
2023-02-14T18:29:54.394Z,28.93
2023-02-14T18:32:22.368Z,30.87
2023-02-14T18:34:51.156Z,30.27
2023-02-14T18:37:19.242Z,31.07
2023-02-14T18:39:47.456Z,31.13
2023-02-14T18:42:15.459Z,33.50
2023-02-14T18:44:43.058Z,31.90
2023-02-14T18:47:11.083Z,32.37
2023-02-14T18:49:39.417Z,31.70
2023-02-14T18:52:07.425Z,32.23
2023-02-14T18:54:35.351Z,30.70
2023-02-14T18:57:07.064Z,29.70
2023-02-14T18:59:35.240Z,31.27
2023-02-14T19:02:03.328Z,31.53
2023-02-14T19:04:30.976Z,32.43
2023-02-14T19:06:58.654Z,57.30
2023-02-14T19:09:27.534Z,40.50
2023-02-14T19:12:00.035Z,36.40
2023-02-14T19:14:27.944Z,35.77
2023-02-14T19:16:55.552Z,34.90
2023-02-14T19:19:24.180Z,35.53
2023-02-14T19:21:52.110Z,36.63
2023-02-14T19:24:19.974Z,44.10
2023-02-14T19:26:48.326Z,40.13
2023-02-14T19:29:17.239Z,39.63
2023-02-14T19:31:45.867Z,38.63
2023-02-14T19:34:20.216Z,38.67
2023-02-14T19:36:48.027Z,37.77
2023-02-14T19:39:15.710Z,45.53
2023-02-14T19:41:44.604Z,43.27
2023-02-14T19:44:13.918Z,43.87
2023-02-14T19:46:42.516Z,43.93
2023-02-14T19:49:12.049Z,50.17
2023-02-14T19:51:40.032Z,48.00
2023-02-14T19:54:09.723Z,43.63
2023-02-14T19:56:37.948Z,44.23
2023-02-14T19:59:14.428Z,41.23
2023-02-14T20:01:48.520Z,42.67
2023-02-14T20:04:17.796Z,41.63
2023-02-14T20:06:47.092Z,43.60
2023-02-14T20:09:15.628Z,40.67
2023-02-14T20:11:51.570Z,42.83
2023-02-14T20:14:27.219Z,41.87
2023-02-14T20:16:55.793Z,38.13
2023-02-14T20:19:29.520Z,38.30
2023-02-14T20:21:58.184Z,37.17
2023-02-14T20:24:27.885Z,40.30
2023-02-14T20:26:55.525Z,43.80
2023-02-14T20:29:23.966Z,41.73
2023-02-14T20:31:53.489Z,38.47
2023-02-14T20:34:21.572Z,37.23
2023-02-14T20:36:56.179Z,38.03
2023-02-14T20:39:27.018Z,35.17
2023-02-14T20:41:54.668Z,37.87
2023-02-14T20:44:22.615Z,40.80
2023-02-14T20:46:51.694Z,41.03
2023-02-14T20:49:20.894Z,40.27
2023-02-14T20:51:51.677Z,35.93
2023-02-14T20:54:19.557Z,41.20
2023-02-14T20:56:47.577Z,36.80
2023-02-14T20:59:16.206Z,37.67
2023-02-14T21:01:44.480Z,36.70
2023-02-14T21:04:14.094Z,34.40
2023-02-14T21:06:42.162Z,33.70
2023-02-14T21:09:09.745Z,33.30
2023-02-14T21:11:39.026Z,32.70
2023-02-14T21:14:08.080Z,31.80
2023-02-14T21:16:36.493Z,31.87
2023-02-14T21:19:05.994Z,31.80
2023-02-14T21:21:36.463Z,32.20
2023-02-14T21:24:24.434Z,30.33
2023-02-14T21:26:52.905Z,30.10
2023-02-14T21:29:21.082Z,28.83
2023-02-14T21:31:50.776Z,30.03
2023-02-14T21:34:19.003Z,30.57
2023-02-14T21:36:48.097Z,27.97
2023-02-14T21:39:16.829Z,30.10
2023-02-14T21:41:44.723Z,28.83
2023-02-14T21:44:32.731Z,30.10
2023-02-14T21:49:47.352Z,27.70
2023-02-14T21:52:15.200Z,28.80
2023-02-14T21:54:43.606Z,30.30
2023-02-14T21:57:11.131Z,29.87
2023-02-14T21:59:40.510Z,30.27
2023-02-14T22:02:09.018Z,31.67
2023-02-14T22:04:36.659Z,29.33
2023-02-14T22:07:04.712Z,31.63
2023-02-14T22:09:33.153Z,31.10
2023-02-14T22:12:01.316Z,28.77
2023-02-14T22:14:29.347Z,29.87
2023-02-14T22:16:57.812Z,29.83
2023-02-14T22:19:26.557Z,28.33
2023-02-14T22:21:54.351Z,26.73
2023-02-14T22:24:22.569Z,27.03
2023-02-14T22:26:50.865Z,28.10
2023-02-14T22:29:19.678Z,27.53
2023-02-14T22:31:48.220Z,27.87
2023-02-14T22:34:19.593Z,26.87
2023-02-14T22:36:47.263Z,24.87
2023-02-14T22:39:16.064Z,25.90
2023-02-14T22:41:44.200Z,26.00
2023-02-14T22:44:17.211Z,28.27
2023-02-14T22:46:48.563Z,29.27
2023-02-14T22:49:17.524Z,28.03
2023-02-14T22:51:44.655Z,26.60
2023-02-14T22:54:13.782Z,28.83
2023-02-14T22:56:48.113Z,28.47
2023-02-14T22:59:18.505Z,27.53
2023-02-14T23:01:46.436Z,28.37
2023-02-14T23:04:14.276Z,28.90
2023-02-14T23:06:42.013Z,27.50
2023-02-14T23:09:10.203Z,30.37
2023-02-14T23:11:37.920Z,28.50
2023-02-14T23:14:24.252Z,29.03
2023-02-14T23:17:10.250Z,26.33
2023-02-14T23:19:58.636Z,26.30
2023-02-14T23:22:38.002Z,25.43
2023-02-14T23:25:10.710Z,25.17
2023-02-14T23:27:47.659Z,26.87
2023-02-14T23:30:18.437Z,26.38
2023-02-14T23:32:46.833Z,25.93
2023-02-14T23:35:16.170Z,24.73
2023-02-14T23:37:44.736Z,25.83
2023-02-14T23:40:13.720Z,25.80
2023-02-14T23:42:42.120Z,25.00
2023-02-14T23:45:28.436Z,26.07
2023-02-14T23:47:56.528Z,26.47
2023-02-14T23:50:25.187Z,26.33
2023-02-14T23:52:53.234Z,25.90
2023-02-14T23:55:21.260Z,25.43
2023-02-14T23:57:49.523Z,24.40
